الصفحة الرئيسية
METAR-TAF:

METAR-TAF

مطار :

Woomera, أستراليا

دائرة عرض: 31-08S, خط طول: 136-49E, ارتفاع: 165 متر

مراقبة الطقس الحالي

تاريخ ووقت الإصدار 32 دقيقة قبل الساعة 21:30UTC
ريح 12 عقدة من الشمال/الشمال الشرقي
درجة الحرارة 9°درجة مئوية
الرطوبة 61%
ضغط 1021 hPa
الرؤية 10 كم أو أكثر

METAR: YPWR 252130Z AUTO 03012KT 9999 // NCD 09/02 Q1021 RF00.0/000.0

زمن: 07:32 (22:02 UTC)

توقعات

تاريخ ووقت الإصدار 5ساعات و 15 دقيقة قبل الساعة 16:47UTC
التوقعات صالحة من25 الساعة 18 UTC إلى 26 الساعة 12 UTC
ريح 12 عقدة من الشمال/الشمال الشرقي
الرؤية 10 كم أو أكثر
الغيوم لا تقل 1500 م ولا وجود لمزنة ركامية السحاب الأسود
من 26 الساعة 0100 UTC
ريح 16 عقدة من الشمال تتزايد حتى 26 عقدة
الرؤية 10 كم أو أكثر
الغيوم لا تقل 1500 م ولا وجود لمزنة ركامية السحاب الأسود

TAF: YPWR 251647Z 2518/2612 03012KT CAVOK FM260100 36016G26KT CAVOK

أرصاد الطقس والتوقعات من أكثر من 4000 مطار (تقارير الطقس للمطار METAR والتنبؤ بالطقس بالمطارTAF).

المحطات المتاحة هي النقط الصفراء والحمراء على الخريطة.

حرك المؤشر فوق النقطة لمعرفة اسم المحطة.

ثم انقر لمعرفة أرصاد وتوقعات الطقس.

لتغيير الخارطة: اضغط على الأزرار الخضراء مع رمز الصليب الأسود للتكبير. على الزر الأخضر مع شرطة للتصغير، أو على الأسهم الخضراء للخرائط المجاورة.


METAR-TAF: